< < Back
Terminal Aerodrome Forecast


Current Version              Previous Versions:   1  2  3  4  5  6  7  8  9  

Terminal Aerodrome Forecast

325
FTUS42 KGSP 242320
TAFAVL
TAF
KAVL 242320Z 2500/2524 21005KT P6SM FEW050
     FM250500 33007KT P6SM BKN170
     FM250900 34011G17KT P6SM BKN035
     FM251600 34007KT P6SM BKN070
     FM252200 32003KT P6SM BKN070=



Latest METAR

436
SAUS70 KWBC 250100 RRG
MTRAVL
METAR KAVL 250054Z 16003KT 10SM CLR 13/09 A2989 RMK AO2 SLP110
T01280089


USA.gov is the U.S. government's official web portal to all federal, state and local government web resources and services.